Cozumel, Mexico

4:18 AM EST on July 31, 2015 (GMT -0500)
APRSWXNET | | Change Station
CLOSE
Current Station
Personal Weather Station
Location: Cozumel,
Elevation: 36 ft
Nearby Weather Stations

Elev 36 ft 20.51 °N, 86.93 °W | Updated 31 minutes ago

Scattered Clouds
Scattered Clouds
76 °F
Feels Like 76 °F
N
2
Wind Variable Wind from South
Gusts 4.0 mph

Today
High -- | Low -- °F
--% Chance of Precip.
Yesterday
High -- | Low -- °F
Precip. -- in
6:21 AM 7:26 PM
Full, 100% visible
Pressure 29.99 in
Visibility 7.0 miles
Clouds Scattered Clouds 30000 ft
Heat Index 76 °F
Dew Point 74 °F
Humidity 94%
Rainfall in
Snow Depth Not available.
UV 0 out of 12
Pollen Not available.
Air Quality Not available.
Flu Activity Not available.
METAR MMUN 310848Z 00000KT 7SM SCT300 24/24 A2999 RMK SLP156 57016 900 8/008

More Conditions Fewer Conditions

Pressure 29.99 in
Visibility 7.0 miles
Clouds Scattered Clouds 30000 ft
Heat Index 76 °F
Dew Point 74 °F
Humidity 94%
Rainfall in
Snow Depth Not available.
UV 0 out of 12
Pollen Not available.
Air Quality Not available.
Flu Activity Not available.
METAR MMUN 310848Z 00000KT 7SM SCT300 24/24 A2999 RMK SLP156 57016 900 8/008

More Conditions Fewer Conditions

10-Day Weather Forecast

×

Almanac

Astronomy

Jul. 31, 2015 Rise Set
Actual Time
Civil Twilight
Nautical Twilight
Astronomical Twilight
Moon
Length of Visible Light
Length of Day
Tomorrow will be .
, % of the Moon is Illuminated

Today's Extremes

Country Highs Country Lows

Community

WunderPhotos

Upload Photos

1,842,633 photos uploaded!

WunderBlogs® & News

Nearby

Air Quality

  Air Quality AQ Index Pollutant
Not available.

Snow Depth

Station Depth Elevation

Earthquake Activity

City Distance Mag. Time & Date
Minimum magnitude displayed is 2.5.

Coastal Water Temperatures

Place Temperature

Stations

Nearby Weather Stations

Station Location Temp. Windchill Dew Point Humidity Wind Precip. Elev Updated Type